sensor_id;sensor_type;location;lat;lon;timestamp;pressure;altitude;pressure_sealevel;temperature;humidity
37066;BME280;22981;43.080;25.550;2023-11-21T00:01:09;99444.07;;;3.38;73.39
37066;BME280;22981;43.080;25.550;2023-11-21T00:03:37;99444.57;;;3.38;73.48
37066;BME280;22981;43.080;25.550;2023-11-21T00:06:04;99448.20;;;3.41;73.54
37066;BME280;22981;43.080;25.550;2023-11-21T00:08:33;99454.98;;;3.43;73.56
37066;BME280;22981;43.080;25.550;2023-11-21T00:11:01;99457.15;;;3.40;73.52
37066;BME280;22981;43.080;25.550;2023-11-21T00:13:35;99457.97;;;3.40;73.56
37066;BME280;22981;43.080;25.550;2023-11-21T00:16:01;99463.77;;;3.40;73.59
37066;BME280;22981;43.080;25.550;2023-11-21T00:18:29;99459.11;;;3.42;73.65
37066;BME280;22981;43.080;25.550;2023-11-21T00:20:56;99456.64;;;3.40;73.57
37066;BME280;22981;43.080;25.550;2023-11-21T00:23:25;99461.17;;;3.28;73.59
37066;BME280;22981;43.080;25.550;2023-11-21T00:25:52;99456.75;;;3.16;73.68
37066;BME280;22981;43.080;25.550;2023-11-21T00:28:20;99455.83;;;3.05;73.72
37066;BME280;22981;43.080;25.550;2023-11-21T00:30:48;99453.03;;;2.98;73.84
37066;BME280;22981;43.080;25.550;2023-11-21T00:33:16;99462.47;;;2.96;73.80
37066;BME280;22981;43.080;25.550;2023-11-21T00:35:43;99466.94;;;2.96;73.69
37066;BME280;22981;43.080;25.550;2023-11-21T00:38:11;99465.61;;;2.96;73.61
37066;BME280;22981;43.080;25.550;2023-11-21T00:40:39;99461.48;;;2.93;73.53
37066;BME280;22981;43.080;25.550;2023-11-21T00:43:06;99461.16;;;2.92;73.51
37066;BME280;22981;43.080;25.550;2023-11-21T00:45:34;99449.75;;;2.92;73.50
37066;BME280;22981;43.080;25.550;2023-11-21T00:48:03;99448.94;;;2.91;73.52
37066;BME280;22981;43.080;25.550;2023-11-21T00:50:31;99450.89;;;2.93;73.52
37066;BME280;22981;43.080;25.550;2023-11-21T00:52:59;99456.00;;;2.95;73.48
37066;BME280;22981;43.080;25.550;2023-11-21T00:55:26;99447.27;;;2.90;73.43
37066;BME280;22981;43.080;25.550;2023-11-21T00:57:54;99453.88;;;2.86;73.50
37066;BME280;22981;43.080;25.550;2023-11-21T01:00:22;99453.88;;;2.86;73.57
37066;BME280;22981;43.080;25.550;2023-11-21T01:02:49;99448.77;;;2.89;73.56
37066;BME280;22981;43.080;25.550;2023-11-21T01:05:17;99445.80;;;2.88;73.59
37066;BME280;22981;43.080;25.550;2023-11-21T01:07:46;99448.95;;;2.87;73.62
37066;BME280;22981;43.080;25.550;2023-11-21T01:10:13;99447.95;;;2.88;73.61
37066;BME280;22981;43.080;25.550;2023-11-21T01:12:43;99444.30;;;2.89;73.64
37066;BME280;22981;43.080;25.550;2023-11-21T01:15:10;99443.15;;;2.92;73.65
37066;BME280;22981;43.080;25.550;2023-11-21T01:17:39;99442.80;;;2.91;73.72
37066;BME280;22981;43.080;25.550;2023-11-21T01:20:07;99437.69;;;2.89;73.65
37066;BME280;22981;43.080;25.550;2023-11-21T01:22:37;99442.50;;;2.82;73.64
37066;BME280;22981;43.080;25.550;2023-11-21T01:25:05;99446.16;;;2.76;73.68
37066;BME280;22981;43.080;25.550;2023-11-21T01:27:34;99437.59;;;2.70;73.67
37066;BME280;22981;43.080;25.550;2023-11-21T01:30:03;99435.78;;;2.67;73.71
37066;BME280;22981;43.080;25.550;2023-11-21T01:32:31;99436.43;;;2.65;73.74
37066;BME280;22981;43.080;25.550;2023-11-21T01:34:59;99433.65;;;2.62;73.69
37066;BME280;22981;43.080;25.550;2023-11-21T01:37:26;99431.52;;;2.58;73.64
37066;BME280;22981;43.080;25.550;2023-11-21T01:39:54;99424.73;;;2.55;73.58
37066;BME280;22981;43.080;25.550;2023-11-21T01:42:22;99424.42;;;2.54;73.58
37066;BME280;22981;43.080;25.550;2023-11-21T01:44:50;99420.95;;;2.54;73.53
37066;BME280;22981;43.080;25.550;2023-11-21T01:47:17;99423.09;;;2.54;73.59
37066;BME280;22981;43.080;25.550;2023-11-21T01:49:45;99422.09;;;2.55;73.54
37066;BME280;22981;43.080;25.550;2023-11-21T01:52:14;99422.41;;;2.56;73.51
37066;BME280;22981;43.080;25.550;2023-11-21T01:54:42;99424.23;;;2.56;73.55
37066;BME280;22981;43.080;25.550;2023-11-21T01:57:09;99417.95;;;2.57;73.60
37066;BME280;22981;43.080;25.550;2023-11-21T01:59:38;99426.88;;;2.60;73.66
37066;BME280;22981;43.080;25.550;2023-11-21T02:02:07;99427.69;;;2.60;73.72
37066;BME280;22981;43.080;25.550;2023-11-21T02:04:36;99422.40;;;2.64;73.77
37066;BME280;22981;43.080;25.550;2023-11-21T02:07:04;99422.39;;;2.68;73.77
37066;BME280;22981;43.080;25.550;2023-11-21T02:09:32;99422.39;;;2.68;73.79
37066;BME280;22981;43.080;25.550;2023-11-21T02:12:01;99428.86;;;2.66;73.82
37066;BME280;22981;43.080;25.550;2023-11-21T02:14:29;99422.25;;;2.66;73.78
37066;BME280;22981;43.080;25.550;2023-11-21T02:16:57;99416.79;;;2.63;73.77
37066;BME280;22981;43.080;25.550;2023-11-21T02:19:25;99413.66;;;2.56;73.67
37066;BME280;22981;43.080;25.550;2023-11-21T02:21:53;99418.01;;;2.44;73.69
37066;BME280;22981;43.080;25.550;2023-11-21T02:24:22;99422.48;;;2.32;73.75
37066;BME280;22981;43.080;25.550;2023-11-21T02:26:50;99420.67;;;2.24;73.86
37066;BME280;22981;43.080;25.550;2023-11-21T02:29:19;99416.71;;;2.24;73.83
37066;BME280;22981;43.080;25.550;2023-11-21T02:31:51;99421.81;;;2.25;73.77
37066;BME280;22981;43.080;25.550;2023-11-21T02:34:18;99418.68;;;2.22;73.74
37066;BME280;22981;43.080;25.550;2023-11-21T02:36:46;99417.71;;;2.19;73.78
37066;BME280;22981;43.080;25.550;2023-11-21T02:39:18;99415.22;;;2.17;73.82
37066;BME280;22981;43.080;25.550;2023-11-21T02:41:47;99416.04;;;2.18;73.79
37066;BME280;22981;43.080;25.550;2023-11-21T02:44:15;99414.72;;;2.18;73.74
37066;BME280;22981;43.080;25.550;2023-11-21T02:46:43;99409.29;;;2.19;73.71
37066;BME280;22981;43.080;25.550;2023-11-21T02:49:10;99406.65;;;2.19;73.61
37066;BME280;22981;43.080;25.550;2023-11-21T02:51:38;99408.12;;;2.18;73.65
37066;BME280;22981;43.080;25.550;2023-11-21T02:54:06;99406.48;;;2.17;73.70
37066;BME280;22981;43.080;25.550;2023-11-21T02:56:34;99401.37;;;2.19;73.69
37066;BME280;22981;43.080;25.550;2023-11-21T02:59:02;99406.47;;;2.21;73.64
37066;BME280;22981;43.080;25.550;2023-11-21T03:01:29;99410.11;;;2.20;73.63
37066;BME280;22981;43.080;25.550;2023-11-21T03:03:57;99403.34;;;2.13;73.58
37066;BME280;22981;43.080;25.550;2023-11-21T03:06:25;99407.98;;;2.07;73.65
37066;BME280;22981;43.080;25.550;2023-11-21T03:08:52;99403.84;;;2.05;73.70
37066;BME280;22981;43.080;25.550;2023-11-21T03:11:20;99398.56;;;2.05;73.69
37066;BME280;22981;43.080;25.550;2023-11-21T03:13:47;99391.95;;;2.05;73.68
37066;BME280;22981;43.080;25.550;2023-11-21T03:16:16;99396.42;;;2.04;73.69
37066;BME280;22981;43.080;25.550;2023-11-21T03:18:45;99396.27;;;2.06;73.71
37066;BME280;22981;43.080;25.550;2023-11-21T03:21:13;99392.13;;;2.07;73.75
37066;BME280;22981;43.080;25.550;2023-11-21T03:23:40;99396.59;;;2.07;73.68
37066;BME280;22981;43.080;25.550;2023-11-21T03:26:11;99398.42;;;1.98;73.68
37066;BME280;22981;43.080;25.550;2023-11-21T03:28:39;99403.20;;;1.94;73.76
37066;BME280;22981;43.080;25.550;2023-11-21T03:31:06;99409.48;;;1.93;73.78
37066;BME280;22981;43.080;25.550;2023-11-21T03:33:36;99405.98;;;1.97;73.70
37066;BME280;22981;43.080;25.550;2023-11-21T03:36:03;99407.48;;;1.95;73.65
37066;BME280;22981;43.080;25.550;2023-11-21T03:38:31;99409.80;;;1.94;73.70
37066;BME280;22981;43.080;25.550;2023-11-21T03:40:58;99410.30;;;1.94;73.73
37066;BME280;22981;43.080;25.550;2023-11-21T03:43:26;99412.77;;;1.95;73.67
37066;BME280;22981;43.080;25.550;2023-11-21T03:45:53;99413.76;;;1.94;73.65
37066;BME280;22981;43.080;25.550;2023-11-21T03:48:21;99418.54;;;1.91;73.57
37066;BME280;22981;43.080;25.550;2023-11-21T03:50:49;99411.44;;;1.83;73.67
37066;BME280;22981;43.080;25.550;2023-11-21T03:53:17;99410.61;;;1.83;73.68
37066;BME280;22981;43.080;25.550;2023-11-21T03:55:44;99405.02;;;1.82;73.63
37066;BME280;22981;43.080;25.550;2023-11-21T03:58:12;99404.02;;;1.83;73.65
37066;BME280;22981;43.080;25.550;2023-11-21T04:00:40;99403.38;;;1.85;73.60
37066;BME280;22981;43.080;25.550;2023-11-21T04:03:07;99394.63;;;1.84;73.63
37066;BME280;22981;43.080;25.550;2023-11-21T04:05:35;99397.59;;;1.85;73.62
37066;BME280;22981;43.080;25.550;2023-11-21T04:08:03;99390.31;;;1.79;73.67
37066;BME280;22981;43.080;25.550;2023-11-21T04:10:30;99401.38;;;1.79;73.73
37066;BME280;22981;43.080;25.550;2023-11-21T04:12:58;99400.88;;;1.79;73.69
37066;BME280;22981;43.080;25.550;2023-11-21T04:15:26;99405.19;;;1.80;73.64
37066;BME280;22981;43.080;25.550;2023-11-21T04:17:54;99409.15;;;1.80;73.67
37066;BME280;22981;43.080;25.550;2023-11-21T04:20:23;99412.11;;;1.81;73.65
37066;BME280;22981;43.080;25.550;2023-11-21T04:22:50;99414.25;;;1.82;73.63
37066;BME280;22981;43.080;25.550;2023-11-21T04:25:18;99417.89;;;1.81;73.59
37066;BME280;22981;43.080;25.550;2023-11-21T04:27:46;99419.35;;;1.79;73.67
37066;BME280;22981;43.080;25.550;2023-11-21T04:30:14;99420.02;;;1.73;73.67
37066;BME280;22981;43.080;25.550;2023-11-21T04:32:42;99422.83;;;1.67;73.78
37066;BME280;22981;43.080;25.550;2023-11-21T04:35:09;99427.75;;;1.66;73.77
37066;BME280;22981;43.080;25.550;2023-11-21T04:37:37;99421.16;;;1.66;73.75
37066;BME280;22981;43.080;25.550;2023-11-21T04:40:05;99432.21;;;1.66;73.65
37066;BME280;22981;43.080;25.550;2023-11-21T04:42:34;99434.03;;;1.65;73.67
37066;BME280;22981;43.080;25.550;2023-11-21T04:45:04;99434.52;;;1.65;73.63
37066;BME280;22981;43.080;25.550;2023-11-21T04:47:33;99434.84;;;1.62;73.78
37066;BME280;22981;43.080;25.550;2023-11-21T04:50:01;99428.24;;;1.62;73.99
37066;BME280;22981;43.080;25.550;2023-11-21T04:52:29;99423.79;;;1.62;73.90
37066;BME280;22981;43.080;25.550;2023-11-21T04:54:57;99424.28;;;1.62;73.78
37066;BME280;22981;43.080;25.550;2023-11-21T04:57:25;99426.92;;;1.58;73.75
37066;BME280;22981;43.080;25.550;2023-11-21T04:59:54;99425.95;;;1.55;73.83
37066;BME280;22981;43.080;25.550;2023-11-21T05:02:21;99424.45;;;1.56;73.78
37066;BME280;22981;43.080;25.550;2023-11-21T05:04:49;99424.63;;;1.55;73.77
37066;BME280;22981;43.080;25.550;2023-11-21T05:07:17;99428.09;;;1.55;73.81
37066;BME280;22981;43.080;25.550;2023-11-21T05:09:44;99440.60;;;1.53;73.82
37066;BME280;22981;43.080;25.550;2023-11-21T05:12:13;99437.44;;;1.45;73.83
37066;BME280;22981;43.080;25.550;2023-11-21T05:14:41;99444.19;;;1.36;73.95
37066;BME280;22981;43.080;25.550;2023-11-21T05:17:09;99447.32;;;1.35;74.07
37066;BME280;22981;43.080;25.550;2023-11-21T05:19:37;99444.87;;;1.38;74.04
37066;BME280;22981;43.080;25.550;2023-11-21T05:22:06;99447.02;;;1.42;73.97
37066;BME280;22981;43.080;25.550;2023-11-21T05:24:35;99441.76;;;1.46;73.88
37066;BME280;22981;43.080;25.550;2023-11-21T05:27:02;99442.58;;;1.47;73.81
37066;BME280;22981;43.080;25.550;2023-11-21T05:29:30;99450.49;;;1.47;73.84
37066;BME280;22981;43.080;25.550;2023-11-21T05:31:57;99451.97;;;1.49;73.82
37066;BME280;22981;43.080;25.550;2023-11-21T05:34:25;99448.84;;;1.54;73.73
37066;BME280;22981;43.080;25.550;2023-11-21T05:36:52;99450.02;;;1.56;73.68
37066;BME280;22981;43.080;25.550;2023-11-21T05:39:21;99445.72;;;1.50;73.70
37066;BME280;22981;43.080;25.550;2023-11-21T05:41:50;99452.97;;;1.53;73.76
37066;BME280;22981;43.080;25.550;2023-11-21T05:44:18;99459.55;;;1.48;73.82
37066;BME280;22981;43.080;25.550;2023-11-21T05:46:46;99456.77;;;1.46;73.88
37066;BME280;22981;43.080;25.550;2023-11-21T05:49:14;99460.52;;;1.39;73.91
37066;BME280;22981;43.080;25.550;2023-11-21T05:51:42;99458.70;;;1.36;73.93
37066;BME280;22981;43.080;25.550;2023-11-21T05:54:10;99454.08;;;1.30;74.08
37066;BME280;22981;43.080;25.550;2023-11-21T05:56:37;99457.88;;;1.35;74.22
37066;BME280;22981;43.080;25.550;2023-11-21T05:59:05;99454.27;;;1.44;74.17
37066;BME280;22981;43.080;25.550;2023-11-21T06:01:33;99454.28;;;1.53;74.10
37066;BME280;22981;43.080;25.550;2023-11-21T06:04:01;99452.80;;;1.54;74.11
37066;BME280;22981;43.080;25.550;2023-11-21T06:06:28;99456.60;;;1.52;74.06
37066;BME280;22981;43.080;25.550;2023-11-21T06:08:57;99454.13;;;1.46;74.02
37066;BME280;22981;43.080;25.550;2023-11-21T06:11:24;99465.30;;;1.40;74.14
37066;BME280;22981;43.080;25.550;2023-11-21T06:13:52;99468.77;;;1.40;74.33
37066;BME280;22981;43.080;25.550;2023-11-21T06:16:19;99469.95;;;1.46;74.33
37066;BME280;22981;43.080;25.550;2023-11-21T06:18:47;99473.09;;;1.58;74.21
37066;BME280;22981;43.080;25.550;2023-11-21T06:21:15;99477.07;;;1.66;74.19
37066;BME280;22981;43.080;25.550;2023-11-21T06:23:44;99476.44;;;1.72;74.13
37066;BME280;22981;43.080;25.550;2023-11-21T06:26:12;99476.09;;;1.75;74.09
37066;BME280;22981;43.080;25.550;2023-11-21T06:28:39;99468.34;;;1.73;74.17
37066;BME280;22981;43.080;25.550;2023-11-21T06:31:07;99469.50;;;1.79;74.26
37066;BME280;22981;43.080;25.550;2023-11-21T06:33:35;99471.83;;;1.86;74.27
37066;BME280;22981;43.080;25.550;2023-11-21T06:36:02;99461.45;;;1.93;74.22
37066;BME280;22981;43.080;25.550;2023-11-21T06:38:30;99460.78;;;1.99;74.19
37066;BME280;22981;43.080;25.550;2023-11-21T06:40:58;99458.15;;;2.03;74.28
37066;BME280;22981;43.080;25.550;2023-11-21T06:43:27;99456.16;;;2.05;74.28
37066;BME280;22981;43.080;25.550;2023-11-21T06:45:56;99445.45;;;2.07;74.31
37066;BME280;22981;43.080;25.550;2023-11-21T06:48:23;99440.66;;;2.02;74.44
37066;BME280;22981;43.080;25.550;2023-11-21T06:50:51;99450.88;;;2.01;74.52
37066;BME280;22981;43.080;25.550;2023-11-21T06:53:19;99436.52;;;1.91;74.61
37066;BME280;22981;43.080;25.550;2023-11-21T06:55:46;99437.34;;;1.88;74.94
37066;BME280;22981;43.080;25.550;2023-11-21T06:58:14;99435.05;;;1.93;75.04
37066;BME280;22981;43.080;25.550;2023-11-21T07:00:42;99441.16;;;2.02;75.09
37066;BME280;22981;43.080;25.550;2023-11-21T07:03:11;99434.88;;;2.11;75.07
37066;BME280;22981;43.080;25.550;2023-11-21T07:05:38;99429.42;;;2.20;74.96
37066;BME280;22981;43.080;25.550;2023-11-21T07:08:06;99437.84;;;2.28;74.85
37066;BME280;22981;43.080;25.550;2023-11-21T07:10:33;99441.45;;;2.31;74.84
37066;BME280;22981;43.080;25.550;2023-11-21T07:13:03;99440.30;;;2.34;74.77
37066;BME280;22981;43.080;25.550;2023-11-21T07:15:30;99437.34;;;2.33;74.78
37066;BME280;22981;43.080;25.550;2023-11-21T07:17:58;99431.05;;;2.34;74.81
37066;BME280;22981;43.080;25.550;2023-11-21T07:20:26;99428.23;;;2.35;74.82
37066;BME280;22981;43.080;25.550;2023-11-21T07:22:54;99426.09;;;2.35;74.93
37066;BME280;22981;43.080;25.550;2023-11-21T07:25:22;99428.89;;;2.45;75.17
37066;BME280;22981;43.080;25.550;2023-11-21T07:27:50;99425.34;;;2.69;75.07
37066;BME280;22981;43.080;25.550;2023-11-21T07:30:17;99427.61;;;2.89;74.84
37066;BME280;22981;43.080;25.550;2023-11-21T07:32:45;99426.38;;;3.04;74.66
37066;BME280;22981;43.080;25.550;2023-11-21T07:35:14;99435.77;;;3.14;74.54
37066;BME280;22981;43.080;25.550;2023-11-21T07:37:42;99436.37;;;3.24;74.50
37066;BME280;22981;43.080;25.550;2023-11-21T07:40:09;99425.14;;;3.54;74.72
37066;BME280;22981;43.080;25.550;2023-11-21T07:42:38;99425.05;;;3.89;74.61
37066;BME280;22981;43.080;25.550;2023-11-21T07:45:06;99416.41;;;4.14;74.25
37066;BME280;22981;43.080;25.550;2023-11-21T07:47:34;99417.20;;;4.37;73.91
37066;BME280;22981;43.080;25.550;2023-11-21T07:50:03;99416.03;;;4.55;73.65
37066;BME280;22981;43.080;25.550;2023-11-21T07:52:31;99421.52;;;4.68;73.47
37066;BME280;22981;43.080;25.550;2023-11-21T07:54:58;99423.53;;;4.81;73.34
37066;BME280;22981;43.080;25.550;2023-11-21T07:57:26;99422.64;;;4.99;73.30
37066;BME280;22981;43.080;25.550;2023-11-21T07:59:54;99421.69;;;5.21;73.06
37066;BME280;22981;43.080;25.550;2023-11-21T08:02:22;99412.69;;;5.48;72.71
37066;BME280;22981;43.080;25.550;2023-11-21T08:04:50;99412.46;;;5.64;72.43
37066;BME280;22981;43.080;25.550;2023-11-21T08:07:18;99414.50;;;5.62;72.31
37066;BME280;22981;43.080;25.550;2023-11-21T08:09:45;99411.76;;;5.56;72.53
37066;BME280;22981;43.080;25.550;2023-11-21T08:12:14;99410.32;;;5.53;72.66
37066;BME280;22981;43.080;25.550;2023-11-21T08:14:42;99414.47;;;5.51;72.79
37066;BME280;22981;43.080;25.550;2023-11-21T08:17:10;99413.59;;;5.55;72.89
37066;BME280;22981;43.080;25.550;2023-11-21T08:19:38;99409.70;;;5.62;72.88
37066;BME280;22981;43.080;25.550;2023-11-21T08:22:06;99404.57;;;5.71;72.84
37066;BME280;22981;43.080;25.550;2023-11-21T08:24:34;99399.24;;;5.82;72.80
37066;BME280;22981;43.080;25.550;2023-11-21T08:27:02;99391.25;;;5.96;72.75
37066;BME280;22981;43.080;25.550;2023-11-21T08:29:30;99385.19;;;6.20;72.54
37066;BME280;22981;43.080;25.550;2023-11-21T08:31:58;99383.36;;;6.38;72.27
37066;BME280;22981;43.080;25.550;2023-11-21T08:34:26;99382.89;;;6.56;72.10
37066;BME280;22981;43.080;25.550;2023-11-21T08:36:55;99374.73;;;6.81;71.85
37066;BME280;22981;43.080;25.550;2023-11-21T08:39:23;99365.88;;;7.15;71.55
37066;BME280;22981;43.080;25.550;2023-11-21T08:41:51;99365.42;;;7.49;71.04
37066;BME280;22981;43.080;25.550;2023-11-21T08:44:19;99356.15;;;7.82;70.50
37066;BME280;22981;43.080;25.550;2023-11-21T08:46:46;99355.22;;;8.12;69.88
37066;BME280;22981;43.080;25.550;2023-11-21T08:49:14;99347.95;;;8.37;69.57
37066;BME280;22981;43.080;25.550;2023-11-21T08:51:41;99345.84;;;8.59;69.24
37066;BME280;22981;43.080;25.550;2023-11-21T08:54:09;99334.20;;;8.75;68.87
37066;BME280;22981;43.080;25.550;2023-11-21T08:56:38;99335.58;;;8.91;68.54
37066;BME280;22981;43.080;25.550;2023-11-21T08:59:05;99335.20;;;9.03;68.19
37066;BME280;22981;43.080;25.550;2023-11-21T09:01:34;99327.14;;;9.33;68.02
37066;BME280;22981;43.080;25.550;2023-11-21T09:04:01;99310.50;;;9.62;67.42
37066;BME280;22981;43.080;25.550;2023-11-21T09:06:29;99314.66;;;9.83;66.85
37066;BME280;22981;43.080;25.550;2023-11-21T09:08:57;99310.08;;;9.90;66.77
37066;BME280;22981;43.080;25.550;2023-11-21T09:11:24;99301.66;;;9.77;66.79
37066;BME280;22981;43.080;25.550;2023-11-21T09:13:53;99301.95;;;9.63;67.22
37066;BME280;22981;43.080;25.550;2023-11-21T09:16:21;99289.84;;;9.51;67.45
37066;BME280;22981;43.080;25.550;2023-11-21T09:18:48;99282.56;;;9.58;67.56
37066;BME280;22981;43.080;25.550;2023-11-21T09:21:16;99277.36;;;9.79;67.71
37066;BME280;22981;43.080;25.550;2023-11-21T09:23:48;99267.84;;;10.08;67.30
37066;BME280;22981;43.080;25.550;2023-11-21T09:26:15;99273.03;;;10.28;66.97
37066;BME280;22981;43.080;25.550;2023-11-21T09:28:46;99263.98;;;10.22;66.83
37066;BME280;22981;43.080;25.550;2023-11-21T09:31:14;99258.40;;;10.15;66.99
37066;BME280;22981;43.080;25.550;2023-11-21T09:33:44;99254.19;;;10.16;66.98
37066;BME280;22981;43.080;25.550;2023-11-21T09:36:12;99250.34;;;10.31;66.87
37066;BME280;22981;43.080;25.550;2023-11-21T09:38:43;99242.53;;;10.47;66.68
37066;BME280;22981;43.080;25.550;2023-11-21T09:41:15;99244.52;;;10.80;66.26
37066;BME280;22981;43.080;25.550;2023-11-21T09:43:43;99234.45;;;11.14;65.76
37066;BME280;22981;43.080;25.550;2023-11-21T09:46:13;99221.92;;;11.50;65.13
37066;BME280;22981;43.080;25.550;2023-11-21T09:48:43;99218.09;;;11.81;64.64
37066;BME280;22981;43.080;25.550;2023-11-21T09:51:12;99212.86;;;12.10;63.96
37066;BME280;22981;43.080;25.550;2023-11-21T09:53:41;99210.78;;;12.38;63.67
37066;BME280;22981;43.080;25.550;2023-11-21T09:56:10;99205.88;;;12.63;62.90
37066;BME280;22981;43.080;25.550;2023-11-21T09:58:38;99208.48;;;12.87;62.20
37066;BME280;22981;43.080;25.550;2023-11-21T10:01:06;99190.86;;;13.08;61.00
37066;BME280;22981;43.080;25.550;2023-11-21T10:03:36;99182.88;;;13.27;59.95
37066;BME280;22981;43.080;25.550;2023-11-21T10:06:05;99177.42;;;13.39;59.59
37066;BME280;22981;43.080;25.550;2023-11-21T10:08:34;99178.16;;;13.51;59.22
37066;BME280;22981;43.080;25.550;2023-11-21T10:11:03;99169.21;;;13.65;58.83
37066;BME280;22981;43.080;25.550;2023-11-21T10:13:33;99167.45;;;13.73;58.40
37066;BME280;22981;43.080;25.550;2023-11-21T10:16:01;99162.73;;;13.83;57.81
37066;BME280;22981;43.080;25.550;2023-11-21T10:18:31;99157.40;;;13.85;57.64
37066;BME280;22981;43.080;25.550;2023-11-21T10:21:00;99157.25;;;13.94;57.34
37066;BME280;22981;43.080;25.550;2023-11-21T10:23:30;99151.71;;;14.03;56.92
37066;BME280;22981;43.080;25.550;2023-11-21T10:25:58;99145.66;;;14.13;56.48
37066;BME280;22981;43.080;25.550;2023-11-21T10:28:26;99139.09;;;14.28;55.79
37066;BME280;22981;43.080;25.550;2023-11-21T10:30:53;99145.60;;;14.52;54.98
37066;BME280;22981;43.080;25.550;2023-11-21T10:33:28;99138.73;;;14.66;54.37
37066;BME280;22981;43.080;25.550;2023-11-21T10:35:56;99132.50;;;14.63;54.61
37066;BME280;22981;43.080;25.550;2023-11-21T10:38:24;99135.73;;;14.63;54.36
37066;BME280;22981;43.080;25.550;2023-11-21T10:40:53;99129.27;;;14.61;54.17
37066;BME280;22981;43.080;25.550;2023-11-21T10:43:25;99119.30;;;14.64;54.12
37066;BME280;22981;43.080;25.550;2023-11-21T10:45:57;99119.61;;;14.68;53.91
37066;BME280;22981;43.080;25.550;2023-11-21T10:48:25;99113.45;;;14.70;53.71
37066;BME280;22981;43.080;25.550;2023-11-21T10:50:53;99106.17;;;14.70;53.53
37066;BME280;22981;43.080;25.550;2023-11-21T10:53:23;99105.64;;;14.71;53.42
37066;BME280;22981;43.080;25.550;2023-11-21T10:55:54;99099.48;;;14.75;53.18
37066;BME280;22981;43.080;25.550;2023-11-21T10:58:20;99097.67;;;14.84;52.90
37066;BME280;22981;43.080;25.550;2023-11-21T11:00:48;99085.66;;;14.96;52.74
37066;BME280;22981;43.080;25.550;2023-11-21T11:03:17;99086.86;;;15.13;52.08
37066;BME280;22981;43.080;25.550;2023-11-21T11:05:45;99078.08;;;15.31;51.23
37066;BME280;22981;43.080;25.550;2023-11-21T11:08:17;99075.20;;;15.42;50.52
37066;BME280;22981;43.080;25.550;2023-11-21T11:10:46;99067.73;;;15.60;50.35
37066;BME280;22981;43.080;25.550;2023-11-21T11:13:14;99061.08;;;15.75;49.75
37066;BME280;22981;43.080;25.550;2023-11-21T11:15:43;99051.39;;;15.84;49.28
37066;BME280;22981;43.080;25.550;2023-11-21T11:18:12;99050.34;;;15.93;48.97
37066;BME280;22981;43.080;25.550;2023-11-21T11:20:42;99046.88;;;16.05;48.56
37066;BME280;22981;43.080;25.550;2023-11-21T11:23:37;99043.17;;;16.19;48.27
37066;BME280;22981;43.080;25.550;2023-11-21T11:26:24;99038.84;;;16.20;48.07
37066;BME280;22981;43.080;25.550;2023-11-21T11:29:10;99033.70;;;16.21;47.50
37066;BME280;22981;43.080;25.550;2023-11-21T11:31:48;99034.23;;;16.18;47.29
37066;BME280;22981;43.080;25.550;2023-11-21T11:34:21;99031.53;;;16.11;47.16
37066;BME280;22981;43.080;25.550;2023-11-21T11:37:08;99026.09;;;16.06;46.99
37066;BME280;22981;43.080;25.550;2023-11-21T11:39:36;99021.27;;;16.10;47.28
37066;BME280;22981;43.080;25.550;2023-11-21T11:42:07;99011.56;;;16.19;47.45
37066;BME280;22981;43.080;25.550;2023-11-21T11:44:46;99001.58;;;16.25;47.56
37066;BME280;22981;43.080;25.550;2023-11-21T11:47:29;99003.48;;;16.32;47.69
37066;BME280;22981;43.080;25.550;2023-11-21T11:50:05;98997.81;;;16.36;47.78
37066;BME280;22981;43.080;25.550;2023-11-21T11:52:36;98994.84;;;16.27;47.96
37066;BME280;22981;43.080;25.550;2023-11-21T11:55:08;98989.40;;;16.12;48.04
37066;BME280;22981;43.080;25.550;2023-11-21T11:57:43;98987.74;;;16.01;48.37
37066;BME280;22981;43.080;25.550;2023-11-21T12:00:15;98987.47;;;15.95;48.57
37066;BME280;22981;43.080;25.550;2023-11-21T12:02:45;98980.17;;;15.90;48.75
37066;BME280;22981;43.080;25.550;2023-11-21T12:05:18;98982.88;;;15.90;48.74
37066;BME280;22981;43.080;25.550;2023-11-21T12:07:52;98980.95;;;15.83;48.86
37066;BME280;22981;43.080;25.550;2023-11-21T12:10:22;98973.37;;;15.75;49.20
37066;BME280;22981;43.080;25.550;2023-11-21T12:12:53;98966.87;;;15.66;49.45
37066;BME280;22981;43.080;25.550;2023-11-21T12:15:21;98972.19;;;15.50;49.76
37066;BME280;22981;43.080;25.550;2023-11-21T12:17:51;98966.98;;;15.36;50.08
37066;BME280;22981;43.080;25.550;2023-11-21T12:20:20;98964.25;;;15.26;50.31
37066;BME280;22981;43.080;25.550;2023-11-21T12:22:49;98965.83;;;15.19;50.57
37066;BME280;22981;43.080;25.550;2023-11-21T12:25:18;98964.19;;;15.13;50.70
37066;BME280;22981;43.080;25.550;2023-11-21T12:27:53;98960.91;;;15.06;51.01
37066;BME280;22981;43.080;25.550;2023-11-21T12:30:20;98960.85;;;14.98;51.11
37066;BME280;22981;43.080;25.550;2023-11-21T12:32:49;98950.59;;;14.90;51.34
37066;BME280;22981;43.080;25.550;2023-11-21T12:35:24;98951.31;;;14.81;51.41
37066;BME280;22981;43.080;25.550;2023-11-21T12:37:54;98950.45;;;14.72;51.54
37066;BME280;22981;43.080;25.550;2023-11-21T12:40:24;98953.92;;;14.68;51.73
37066;BME280;22981;43.080;25.550;2023-11-21T12:42:53;98955.00;;;14.67;51.75
37066;BME280;22981;43.080;25.550;2023-11-21T12:45:26;98947.19;;;14.68;51.70
37066;BME280;22981;43.080;25.550;2023-11-21T12:47:58;98943.68;;;14.67;51.70
37066;BME280;22981;43.080;25.550;2023-11-21T12:50:27;98951.52;;;14.69;51.66
37066;BME280;22981;43.080;25.550;2023-11-21T12:53:01;98941.26;;;14.66;51.64
37066;BME280;22981;43.080;25.550;2023-11-21T12:55:32;98946.38;;;14.65;51.73
37066;BME280;22981;43.080;25.550;2023-11-21T12:58:01;98949.81;;;14.60;51.98
37066;BME280;22981;43.080;25.550;2023-11-21T13:00:44;98950.89;;;14.57;52.08
37066;BME280;22981;43.080;25.550;2023-11-21T13:03:14;98952.17;;;14.51;52.29
37066;BME280;22981;43.080;25.550;2023-11-21T13:05:45;98949.75;;;14.50;52.38